Time;durP1;ratioP1;P1;durP2;ratioP2;P2;SDS_P1;SDS_P2;PMS_P1;PMS_P2;Temp;Humidity;BMP_temperature;BMP_pressure;BME280_temperature;BME280_humidity;BME280_pressure;Samples;Min_cycle;Max_cycle;Signal;HPM_P1;HPM_P2
2022/12/26 00:01:16;;;;;;;;;;;16.70;73.60;;;;;;10208516;28;93177;-66
2022/12/26 00:06:19;;;;;;;;;;;16.60;73.40;;;;;;10208462;28;93972;-66
2022/12/26 00:11:22;;;;;;;;;;;16.60;73.40;;;;;;10204667;28;93335;-66
2022/12/26 00:16:25;;;;;;;;;;;16.60;73.40;;;;;;10207699;28;93657;-66
2022/12/26 00:21:27;;;;;;;;;;;16.60;73.40;;;;;;10208045;28;94011;-65
2022/12/26 00:26:30;;;;;;;;;;;16.60;73.30;;;;;;10205573;28;94496;-66
2022/12/26 00:31:33;;;;;;;;;;;16.50;73.40;;;;;;10207599;28;92855;-66
2022/12/26 00:36:35;;;;;;;;;;;16.50;73.30;;;;;;10202460;28;96190;-66
2022/12/26 00:41:36;;;;;;;;;;;16.50;73.30;;;;;;10206904;28;93983;-67
2022/12/26 00:46:38;;;;;;;;;;;16.50;73.30;;;;;;10207062;28;93497;-65
2022/12/26 00:51:40;;;;;;;;;;;16.50;73.30;;;;;;10206791;28;94092;-66
2022/12/26 00:56:41;;;;;;;;;;;16.50;73.30;;;;;;10206432;28;93460;-66
2022/12/26 01:01:43;;;;;;;;;;;16.40;73.20;;;;;;10214405;28;94238;-66
2022/12/26 01:06:46;;;;;;;;;;;16.40;73.20;;;;;;10213560;28;94647;-65
2022/12/26 01:11:47;;;;;;;;;;;16.40;73.30;;;;;;10213990;28;92903;-65
2022/12/26 01:16:49;;;;;;;;;;;16.40;74.20;;;;;;10228870;28;95761;-66
2022/12/26 01:21:52;;;;;;;;;;;16.40;73.20;;;;;;10213246;28;94569;-66
2022/12/26 01:26:54;;;;;;;;;;;16.40;73.10;;;;;;10209315;28;96409;-66
2022/12/26 01:31:55;;;;;;;;;;;16.40;73.20;;;;;;10211950;28;93336;-66
2022/12/26 01:36:57;;;;;;;;;;;16.40;73.10;;;;;;10212739;28;94470;-66
2022/12/26 01:41:59;;;;;;;;;;;16.40;73.10;;;;;;10210981;28;93473;-66
2022/12/26 01:47:01;;;;;;;;;;;16.40;73.10;;;;;;10211383;28;92531;-66
2022/12/26 01:52:04;;;;;;;;;;;16.40;73.10;;;;;;10211911;28;93547;-66
2022/12/26 01:57:09;;;;;;;;;;;16.40;73.00;;;;;;10210664;28;93446;-65
2022/12/26 02:02:14;;;;;;;;;;;16.30;73.00;;;;;;10633830;23;94425;31
2022/12/26 02:07:16;;;;;;;;;;;16.30;73.00;;;;;;10129026;28;93405;-62
2022/12/26 02:12:20;;;;;;;;;;;16.30;73.00;;;;;;10133003;28;94467;-62
2022/12/26 02:17:38;;;;;;;;;;;16.30;73.00;;;;;;10129474;28;96909;-62
2022/12/26 02:22:52;;;;;;;;;;;16.30;72.90;;;;;;10132473;28;93553;-62
2022/12/26 02:28:03;;;;;;;;;;;16.30;72.90;;;;;;10132284;28;94471;-62
2022/12/26 02:33:24;;;;;;;;;;;16.30;72.90;;;;;;10132176;28;94472;-62
2022/12/26 02:38:44;;;;;;;;;;;16.30;72.90;;;;;;10132011;28;93326;-62
2022/12/26 02:43:52;;;;;;;;;;;16.30;72.80;;;;;;10131983;28;93937;-62
2022/12/26 02:49:07;;;;;;;;;;;16.30;72.80;;;;;;10130789;28;94497;-62
2022/12/26 03:21:23;;;;;;;;;;;16.20;72.70;;;;;;10129859;28;93607;-62
2022/12/26 03:26:40;;;;;;;;;;;16.20;73.60;;;;;;10130418;28;93333;-62
2022/12/26 03:31:42;;;;;;;;;;;16.20;72.60;;;;;;10129977;28;94450;-62
2022/12/26 03:36:56;;;;;;;;;;;16.20;72.60;;;;;;10130751;28;93179;-62
2022/12/26 04:20:19;;;;;;;;;;;16.20;72.50;;;;;;10128986;28;93883;-63
2022/12/26 06:04:29;;;;;;;;;;;16.40;71.80;;;;;;10098369;28;95952;-62
2022/12/26 06:09:31;;;;;;;;;;;16.50;71.40;;;;;;10133272;28;93545;-62
2022/12/26 06:14:33;;;;;;;;;;;16.60;71.40;;;;;;10131986;28;94419;-62
2022/12/26 06:19:34;;;;;;;;;;;16.60;71.30;;;;;;10132691;28;94069;-62
2022/12/26 06:24:43;;;;;;;;;;;16.60;71.40;;;;;;10132206;28;93514;-62
2022/12/26 06:29:45;;;;;;;;;;;16.60;71.60;;;;;;10132013;28;93888;-62
2022/12/26 06:34:47;;;;;;;;;;;16.60;71.80;;;;;;10132270;28;94484;-62
2022/12/26 06:39:49;;;;;;;;;;;16.50;71.80;;;;;;10132039;28;92796;-62
2022/12/26 06:44:50;;;;;;;;;;;16.50;72.00;;;;;;10144974;28;93310;-62
2022/12/26 06:49:52;;;;;;;;;;;16.50;72.10;;;;;;10131332;28;93201;-62
2022/12/26 06:54:54;;;;;;;;;;;16.50;72.20;;;;;;10129130;28;95860;-62
2022/12/26 06:59:56;;;;;;;;;;;16.50;72.30;;;;;;10130486;28;93551;-60
2022/12/26 07:04:58;;;;;;;;;;;16.50;72.40;;;;;;10131100;28;93592;-62
2022/12/26 07:09:59;;;;;;;;;;;16.40;72.40;;;;;;10130871;28;93497;-62
2022/12/26 07:15:01;;;;;;;;;;;16.40;72.50;;;;;;10128930;28;93340;-62
2022/12/26 07:20:03;;;;;;;;;;;16.40;72.60;;;;;;10131117;28;94268;-61
2022/12/26 07:25:05;;;;;;;;;;;16.40;72.70;;;;;;10130246;28;93494;-62
2022/12/26 07:30:07;;;;;;;;;;;16.40;72.80;;;;;;10130698;28;92715;-62
2022/12/26 07:35:09;;;;;;;;;;;16.40;72.80;;;;;;10130760;28;94075;-61
2022/12/26 07:40:11;;;;;;;;;;;16.30;72.70;;;;;;10130246;28;94488;-61
2022/12/26 07:45:12;;;;;;;;;;;16.40;73.00;;;;;;10128362;28;96800;-62
2022/12/26 07:50:14;;;;;;;;;;;16.30;73.00;;;;;;10130068;28;93583;-62
2022/12/26 07:55:17;;;;;;;;;;;16.30;73.00;;;;;;10130124;28;93806;-62
2022/12/26 08:00:19;;;;;;;;;;;16.30;73.10;;;;;;10130425;28;94054;-62
2022/12/26 08:05:20;;;;;;;;;;;16.30;73.00;;;;;;10127706;28;93341;-62
2022/12/26 08:10:22;;;;;;;;;;;16.30;73.20;;;;;;10129109;28;94485;-60
2022/12/26 08:15:24;;;;;;;;;;;16.30;73.20;;;;;;10129462;28;92640;-62
2022/12/26 08:20:26;;;;;;;;;;;16.30;73.20;;;;;;10129111;28;92552;-62
2022/12/26 08:25:27;;;;;;;;;;;16.30;73.30;;;;;;10128867;28;93430;-62
2022/12/26 08:30:29;;;;;;;;;;;16.30;73.30;;;;;;10129219;28;93240;-62
2022/12/26 08:35:32;;;;;;;;;;;16.30;73.30;;;;;;10126309;28;95518;-62
2022/12/26 08:40:34;;;;;;;;;;;16.30;73.40;;;;;;10127998;28;93504;-62
2022/12/26 08:45:45;;;;;;;;;;;16.30;73.40;;;;;;10127845;28;93622;-62
2022/12/26 08:50:47;;;;;;;;;;;16.20;73.30;;;;;;10127736;28;95083;-62
2022/12/26 08:55:48;;;;;;;;;;;16.20;73.40;;;;;;10127575;28;93443;-61
2022/12/26 09:00:50;;;;;;;;;;;16.20;73.40;;;;;;10142342;28;93503;-62
2022/12/26 09:05:58;;;;;;;;;;;16.20;73.40;;;;;;10126459;28;93233;-62
2022/12/26 09:11:08;;;;;;;;;;;16.20;73.50;;;;;;10127704;28;93711;-62
2022/12/26 09:16:11;;;;;;;;;;;16.20;73.50;;;;;;10127349;28;94468;-61
2022/12/26 09:21:13;;;;;;;;;;;16.20;73.30;;;;;;10133942;28;93492;-62
2022/12/26 09:26:16;;;;;;;;;;;16.20;74.00;;;;;;10130635;28;96817;-62
2022/12/26 09:31:19;;;;;;;;;;;16.20;74.50;;;;;;10132390;28;93530;-61
2022/12/26 09:36:23;;;;;;;;;;;16.40;74.40;;;;;;10133960;28;93792;-62
2022/12/26 09:41:30;;;;;;;;;;;16.50;74.30;;;;;;10147997;28;92927;-61
2022/12/26 09:46:38;;;;;;;;;;;16.60;74.60;;;;;;10134040;28;94475;-62
2022/12/26 09:51:41;;;;;;;;;;;16.80;73.20;;;;;;10133114;28;93885;-61
2022/12/26 09:56:45;;;;;;;;;;;16.90;72.50;;;;;;10132999;28;93337;-61
2022/12/26 10:02:03;;;;;;;;;;;17.10;71.80;;;;;;10133145;28;93743;-62
2022/12/26 10:07:17;;;;;;;;;;;17.20;71.30;;;;;;10148002;28;94483;-61
2022/12/26 10:12:30;;;;;;;;;;;17.20;70.90;;;;;;10130860;28;94536;-61
2022/12/26 10:17:50;;;;;;;;;;;17.20;70.90;;;;;;10130560;28;96739;-61
2022/12/26 10:23:07;;;;;;;;;;;17.20;71.10;;;;;;10132129;28;93669;-61
2022/12/26 10:28:14;;;;;;;;;;;17.10;71.00;;;;;;10131232;28;94505;-60
2022/12/26 10:33:19;;;;;;;;;;;17.10;71.10;;;;;;10132167;28;93629;-61
2022/12/26 10:38:24;;;;;;;;;;;17.00;71.50;;;;;;10132369;28;94550;-61
2022/12/26 10:43:30;;;;;;;;;;;17.00;72.70;;;;;;10131330;28;94497;-61
2022/12/26 10:48:32;;;;;;;;;;;17.00;73.60;;;;;;10132266;28;94529;-62
2022/12/26 10:53:34;;;;;;;;;;;16.90;73.90;;;;;;10132444;28;92758;-62
2022/12/26 10:58:36;;;;;;;;;;;16.90;74.30;;;;;;10131693;28;93546;-62
2022/12/26 11:03:52;;;;;;;;;;;16.90;73.60;;;;;;10130945;28;94299;-62
2022/12/26 11:08:54;;;;;;;;;;;16.80;73.00;;;;;;10127723;28;95220;-61
2022/12/26 11:13:57;;;;;;;;;;;16.80;73.00;;;;;;10131803;28;93350;-62
2022/12/26 11:19:03;;;;;;;;;;;16.80;72.80;;;;;;10131119;28;94472;-61
2022/12/26 11:24:08;;;;;;;;;;;16.80;73.40;;;;;;10144901;28;93740;-61
2022/12/26 11:29:11;;;;;;;;;;;16.80;74.60;;;;;;10130315;28;93527;-61
2022/12/26 11:34:16;;;;;;;;;;;16.80;74.00;;;;;;10130548;28;93685;-61
2022/12/26 11:39:20;;;;;;;;;;;16.80;74.20;;;;;;10129419;28;93559;-62
2022/12/26 11:44:25;;;;;;;;;;;16.90;74.40;;;;;;10130972;28;92851;-62
2022/12/26 11:49:28;;;;;;;;;;;16.90;74.60;;;;;;10144786;28;93528;-62
2022/12/26 11:54:34;;;;;;;;;;;16.90;74.90;;;;;;10129973;28;94552;-63
2022/12/26 11:59:37;;;;;;;;;;;16.90;74.90;;;;;;10126911;28;95845;-64
2022/12/26 12:04:38;;;;;;;;;;;16.90;74.90;;;;;;10128655;28;93367;-63
2022/12/26 12:09:40;;;;;;;;;;;16.90;74.60;;;;;;10129534;28;94139;-62
2022/12/26 12:15:01;;;;;;;;;;;16.90;74.00;;;;;;10144759;28;94472;-63
2022/12/26 12:20:23;;;;;;;;;;;16.90;74.00;;;;;;10128924;28;93253;-64
2022/12/26 12:25:29;;;;;;;;;;;16.80;73.90;;;;;;10128074;28;93310;-63
2022/12/26 12:30:51;;;;;;;;;;;16.80;73.80;;;;;;10128244;28;94526;-65
2022/12/26 12:36:00;;;;;;;;;;;16.70;73.70;;;;;;10129331;28;94002;-64
2022/12/26 12:41:20;;;;;;;;;;;16.70;73.80;;;;;;10128125;28;94175;-65
2022/12/26 12:46:28;;;;;;;;;;;16.80;73.70;;;;;;10128794;28;93489;-65
2022/12/26 12:51:36;;;;;;;;;;;16.80;73.80;;;;;;10126225;28;96700;-65
2022/12/26 12:56:40;;;;;;;;;;;16.80;74.30;;;;;;10150253;28;94474;-66
2022/12/26 13:01:46;;;;;;;;;;;16.80;74.30;;;;;;10134973;28;93796;-65
2022/12/26 13:06:57;;;;;;;;;;;16.80;74.80;;;;;;10149476;28;93617;-64
2022/12/26 13:12:04;;;;;;;;;;;16.80;73.90;;;;;;10134520;28;93614;-65
2022/12/26 13:17:17;;;;;;;;;;;16.70;74.10;;;;;;10135165;28;93480;-65
2022/12/26 13:24:22;;;;;;;;;;;16.80;74.40;;;;;;10135462;28;94264;-65
2022/12/26 13:28:08;;;;;;;;;;;16.80;74.20;;;;;;10135015;28;92410;-65
2022/12/26 13:33:12;;;;;;;;;;;16.80;74.10;;;;;;10147329;28;93427;-65
2022/12/26 13:38:14;;;;;;;;;;;16.80;74.20;;;;;;10133928;28;92730;-66
2022/12/26 13:48:39;;;;;;;;;;;16.90;75.00;;;;;;10133271;28;93501;-64
2022/12/26 13:53:54;;;;;;;;;;;16.90;74.50;;;;;;10133113;28;93468;-65
2022/12/26 13:59:01;;;;;;;;;;;16.80;74.50;;;;;;10148477;28;93817;-65
2022/12/26 14:04:27;;;;;;;;;;;16.80;75.70;;;;;;10131886;28;93722;-65
2022/12/26 14:09:29;;;;;;;;;;;16.80;75.20;;;;;;10133162;28;94653;-65
2022/12/26 14:14:39;;;;;;;;;;;16.80;75.00;;;;;;10133042;28;94517;-66
2022/12/26 14:19:51;;;;;;;;;;;16.80;74.60;;;;;;10133485;28;92388;-65
2022/12/26 14:24:56;;;;;;;;;;;16.90;75.00;;;;;;10146640;28;94667;-64
2022/12/26 14:30:16;;;;;;;;;;;16.90;76.10;;;;;;10132272;28;94459;-65
2022/12/26 14:35:24;;;;;;;;;;;16.90;75.20;;;;;;10144100;28;97075;-66
2022/12/26 14:40:28;;;;;;;;;;;16.90;74.30;;;;;;10133200;28;95698;-64
2022/12/26 14:45:30;;;;;;;;;;;16.90;74.10;;;;;;10131849;28;93927;-65
2022/12/26 14:50:36;;;;;;;;;;;16.90;73.80;;;;;;10131778;28;93507;-65
2022/12/26 14:55:46;;;;;;;;;;;16.90;73.40;;;;;;10131117;28;94255;-65
2022/12/26 15:00:48;;;;;;;;;;;16.90;73.00;;;;;;10146097;28;93375;-65
2022/12/26 15:05:51;;;;;;;;;;;16.90;72.70;;;;;;10128840;28;93950;-65
2022/12/26 15:10:55;;;;;;;;;;;16.80;72.40;;;;;;10126366;28;92900;-65
2022/12/26 15:16:13;;;;;;;;;;;16.80;72.10;;;;;;10138526;28;94422;-66
2022/12/26 15:21:21;;;;;;;;;;;16.80;72.00;;;;;;10129703;28;94625;-66
2022/12/26 15:26:34;;;;;;;;;;;16.80;72.00;;;;;;10125426;28;116428;-65
2022/12/26 15:31:44;;;;;;;;;;;16.70;71.80;;;;;;10129997;28;94527;-65
2022/12/26 15:36:52;;;;;;;;;;;16.80;71.80;;;;;;10130810;28;94159;-65
2022/12/26 15:42:17;;;;;;;;;;;16.70;71.60;;;;;;10128419;28;94688;-67
2022/12/26 15:47:25;;;;;;;;;;;16.80;71.80;;;;;;10120738;28;94558;-66
2022/12/26 15:52:27;;;;;;;;;;;16.80;72.00;;;;;;10129818;28;93542;-66
2022/12/26 15:57:48;;;;;;;;;;;16.80;72.40;;;;;;10129230;28;93460;-64
2022/12/26 16:02:58;;;;;;;;;;;16.80;72.30;;;;;;10129035;28;93033;-66
2022/12/26 16:08:21;;;;;;;;;;;16.80;72.30;;;;;;10143693;28;94661;-65
2022/12/26 16:13:23;;;;;;;;;;;16.90;72.30;;;;;;10129038;28;93126;-66
2022/12/26 16:18:29;;;;;;;;;;;16.90;72.10;;;;;;10125949;28;97369;-67
2022/12/26 16:23:34;;;;;;;;;;;16.90;72.00;;;;;;10128038;28;93359;-67
2022/12/26 16:28:38;;;;;;;;;;;16.80;71.90;;;;;;10127381;28;93659;-66
2022/12/26 16:33:41;;;;;;;;;;;16.80;72.00;;;;;;10127540;28;94593;-65
2022/12/26 16:38:42;;;;;;;;;;;16.90;71.90;;;;;;10128299;28;93599;-65
2022/12/26 16:43:44;;;;;;;;;;;16.90;71.70;;;;;;10127716;28;93351;-66
2022/12/26 16:48:51;;;;;;;;;;;16.90;71.70;;;;;;10128121;28;93515;-64
2022/12/26 16:53:53;;;;;;;;;;;16.90;72.00;;;;;;10128122;28;93778;-65
2022/12/26 16:59:01;;;;;;;;;;;17.00;71.40;;;;;;10127376;28;94515;-65
2022/12/26 17:04:25;;;;;;;;;;;17.00;72.10;;;;;;10127351;28;93962;-62
2022/12/26 17:09:37;;;;;;;;;;;17.10;70.90;;;;;;10121800;28;96113;-64
2022/12/26 17:14:41;;;;;;;;;;;17.20;71.50;;;;;;10125033;28;93725;-62
2022/12/26 17:19:43;;;;;;;;;;;17.40;73.10;;;;;;10125466;28;94540;-64
2022/12/26 17:24:51;;;;;;;;;;;17.70;76.10;;;;;;10126347;28;93692;-63
2022/12/26 17:29:52;;;;;;;;;;;18.10;76.50;;;;;;10140396;28;93834;-64
2022/12/26 17:34:58;;;;;;;;;;;18.30;79.20;;;;;;10125836;28;93522;-65
2022/12/26 17:40:13;;;;;;;;;;;18.50;75.80;;;;;;10128646;28;93491;-64
2022/12/26 17:45:17;;;;;;;;;;;18.40;74.20;;;;;;10133414;28;92931;-63
2022/12/26 17:50:20;;;;;;;;;;;18.20;73.60;;;;;;10132880;28;94079;-63
2022/12/26 17:55:24;;;;;;;;;;;18.10;73.40;;;;;;10132838;28;92906;-63
2022/12/26 18:00:26;;;;;;;;;;;17.90;73.10;;;;;;10130180;28;96016;-64
2022/12/26 18:05:28;;;;;;;;;;;17.80;73.50;;;;;;10131777;28;97059;-64
2022/12/26 18:10:31;;;;;;;;;;;17.70;72.80;;;;;;10133307;28;94064;-62
2022/12/26 18:15:32;;;;;;;;;;;17.60;72.80;;;;;;10131976;28;94440;-63
2022/12/26 18:20:34;;;;;;;;;;;17.50;72.30;;;;;;10145496;28;94752;-62
2022/12/26 18:25:36;;;;;;;;;;;17.50;72.60;;;;;;10131609;28;93271;-61
2022/12/26 18:30:38;;;;;;;;;;;17.40;72.90;;;;;;10130743;28;93686;-62
2022/12/26 18:35:41;;;;;;;;;;;17.40;73.00;;;;;;10131760;28;93772;-62
2022/12/26 18:40:45;;;;;;;;;;;17.30;73.20;;;;;;10132559;28;93376;-62
2022/12/26 18:45:47;;;;;;;;;;;17.30;73.20;;;;;;10131215;28;94492;-63
2022/12/26 18:50:49;;;;;;;;;;;17.30;73.40;;;;;;10127632;28;95733;-62
2022/12/26 18:55:52;;;;;;;;;;;17.40;74.90;;;;;;10124594;28;94479;-63
2022/12/26 19:00:53;;;;;;;;;;;17.40;74.00;;;;;;10126821;28;94532;-64
2022/12/26 19:05:56;;;;;;;;;;;17.40;73.80;;;;;;10128672;28;93354;-63
2022/12/26 19:10:57;;;;;;;;;;;17.30;74.00;;;;;;10144227;28;93352;-63
2022/12/26 19:15:59;;;;;;;;;;;17.30;74.80;;;;;;10144415;28;94665;-65
2022/12/26 19:21:01;;;;;;;;;;;17.30;74.40;;;;;;10130129;28;93423;-63
2022/12/26 19:26:14;;;;;;;;;;;17.30;75.50;;;;;;10129791;28;93780;-63
2022/12/26 19:31:16;;;;;;;;;;;17.40;74.90;;;;;;10129937;28;94471;-63
2022/12/26 19:36:18;;;;;;;;;;;17.40;74.30;;;;;;10140511;28;94660;-63
2022/12/26 19:41:20;;;;;;;;;;;17.40;74.00;;;;;;10123740;28;95552;-64
2022/12/26 19:46:22;;;;;;;;;;;17.40;73.80;;;;;;10129301;28;93527;-63
2022/12/26 19:51:24;;;;;;;;;;;17.40;73.60;;;;;;10128420;28;93379;-64
2022/12/26 19:56:26;;;;;;;;;;;17.40;73.50;;;;;;10128912;28;93216;-64
2022/12/26 20:01:30;;;;;;;;;;;17.40;73.40;;;;;;10128072;28;93328;-63
2022/12/26 20:06:33;;;;;;;;;;;17.40;73.20;;;;;;10127698;28;94520;-63
2022/12/26 20:11:36;;;;;;;;;;;17.40;73.00;;;;;;10129119;28;94337;-63
2022/12/26 20:16:38;;;;;;;;;;;17.40;72.80;;;;;;10128918;28;93380;-63
2022/12/26 20:22:00;;;;;;;;;;;17.40;72.60;;;;;;10127818;28;96018;-63
2022/12/26 20:27:02;;;;;;;;;;;17.30;72.40;;;;;;10127999;28;94164;-63
2022/12/26 20:32:04;;;;;;;;;;;17.30;72.40;;;;;;10125105;28;96935;-64
2022/12/26 20:37:05;;;;;;;;;;;17.30;72.20;;;;;;10127488;28;96812;-64
2022/12/26 20:42:07;;;;;;;;;;;17.30;72.00;;;;;;10127367;28;93476;-64
2022/12/26 20:47:09;;;;;;;;;;;17.30;72.00;;;;;;10127808;28;93478;-63
2022/12/26 20:52:10;;;;;;;;;;;17.30;72.00;;;;;;10126731;28;94463;-63
2022/12/26 20:57:12;;;;;;;;;;;17.30;72.00;;;;;;10121846;28;93359;-65
2022/12/26 21:02:14;;;;;;;;;;;17.30;72.00;;;;;;10123052;28;94462;-63
2022/12/26 21:07:16;;;;;;;;;;;17.30;72.00;;;;;;10128734;28;92703;-64
2022/12/26 21:12:18;;;;;;;;;;;17.30;72.20;;;;;;10141954;28;93889;-63
2022/12/26 21:17:19;;;;;;;;;;;17.20;72.30;;;;;;10128489;28;94650;-64
2022/12/26 21:22:22;;;;;;;;;;;17.20;72.30;;;;;;10128209;28;95714;-64
2022/12/26 21:27:24;;;;;;;;;;;17.30;72.40;;;;;;10133140;28;93494;-63
2022/12/26 21:32:26;;;;;;;;;;;17.20;72.40;;;;;;10132563;28;93331;-64
2022/12/26 21:42:48;;;;;;;;;;;17.20;72.50;;;;;;10133325;28;93579;-64
2022/12/26 21:47:50;;;;;;;;;;;17.20;72.50;;;;;;10132077;28;93375;-64
2022/12/26 21:52:51;;;;;;;;;;;17.10;72.40;;;;;;10131416;28;94809;-64
2022/12/26 21:57:53;;;;;;;;;;;17.10;72.60;;;;;;10133358;28;91909;-64
2022/12/26 22:08:16;;;;;;;;;;;17.10;72.70;;;;;;10132556;28;94872;-63
2022/12/26 22:13:19;;;;;;;;;;;17.10;72.80;;;;;;10127825;28;97031;-64
2022/12/26 22:18:20;;;;;;;;;;;17.10;72.80;;;;;;10131929;28;93334;-64
2022/12/26 22:23:22;;;;;;;;;;;17.00;72.80;;;;;;10131960;28;93501;-64
2022/12/26 22:28:24;;;;;;;;;;;17.00;72.80;;;;;;10131817;28;93322;-64
2022/12/26 22:33:26;;;;;;;;;;;17.00;72.90;;;;;;10133008;28;93298;-64
2022/12/26 22:38:28;;;;;;;;;;;17.00;72.90;;;;;;10145192;28;93659;-62
2022/12/26 22:43:30;;;;;;;;;;;17.00;72.90;;;;;;10123811;28;94595;-64
2022/12/26 22:48:32;;;;;;;;;;;16.90;72.60;;;;;;10129038;28;92894;-63
2022/12/26 22:53:34;;;;;;;;;;;16.90;72.00;;;;;;10144185;28;93565;-64
2022/12/26 22:58:36;;;;;;;;;;;16.80;72.20;;;;;;10131254;28;94285;-65
2022/12/26 23:03:37;;;;;;;;;;;16.70;72.30;;;;;;10126183;28;96026;-64
2022/12/26 23:08:39;;;;;;;;;;;16.70;72.30;;;;;;10130202;28;94308;-63
2022/12/26 23:13:41;;;;;;;;;;;16.70;72.40;;;;;;10145112;28;93424;-64
2022/12/26 23:24:11;;;;;;;;;;;16.50;72.30;;;;;;10129693;28;93463;-64
2022/12/26 23:34:33;;;;;;;;;;;16.40;72.20;;;;;;10129987;28;93343;-63
2022/12/26 23:39:35;;;;;;;;;;;16.40;72.10;;;;;;10129334;28;93963;-65
2022/12/26 23:44:37;;;;;;;;;;;16.40;72.20;;;;;;10129438;28;94800;-64
2022/12/26 23:49:38;;;;;;;;;;;16.40;72.10;;;;;;10130069;28;94133;-65
2022/12/26 23:54:40;;;;;;;;;;;16.30;71.90;;;;;;10127193;28;96754;-65
2022/12/26 23:59:42;;;;;;;;;;;16.30;71.90;;;;;;10129565;28;93425;-64
